sensor_id;sensor_type;location;lat;lon;timestamp;temperature;humidity
21734;DHT22;11029;47.820;10.534;2022-12-20T00:00:51;-0.40;85.90
21734;DHT22;11029;47.820;10.534;2022-12-20T00:03:18;-0.40;85.60
21734;DHT22;11029;47.820;10.534;2022-12-20T00:05:46;-0.40;85.30
21734;DHT22;11029;47.820;10.534;2022-12-20T00:08:14;-0.40;85.30
21734;DHT22;11029;47.820;10.534;2022-12-20T00:10:43;-0.40;85.40
21734;DHT22;11029;47.820;10.534;2022-12-20T00:13:11;-0.40;85.40
21734;DHT22;11029;47.820;10.534;2022-12-20T00:15:38;-0.40;85.30
21734;DHT22;11029;47.820;10.534;2022-12-20T00:18:04;-0.50;85.20
21734;DHT22;11029;47.820;10.534;2022-12-20T00:20:32;-0.40;85.50
21734;DHT22;11029;47.820;10.534;2022-12-20T00:22:58;-0.40;85.50
21734;DHT22;11029;47.820;10.534;2022-12-20T00:25:25;-0.40;85.70
21734;DHT22;11029;47.820;10.534;2022-12-20T00:27:52;-0.30;85.50
21734;DHT22;11029;47.820;10.534;2022-12-20T00:30:19;-0.30;85.50
21734;DHT22;11029;47.820;10.534;2022-12-20T00:32:46;-0.30;85.30
21734;DHT22;11029;47.820;10.534;2022-12-20T00:35:12;-0.30;85.30
21734;DHT22;11029;47.820;10.534;2022-12-20T00:37:39;-0.40;85.30
21734;DHT22;11029;47.820;10.534;2022-12-20T00:40:06;-0.40;85.30
21734;DHT22;11029;47.820;10.534;2022-12-20T00:42:33;-0.40;85.60
21734;DHT22;11029;47.820;10.534;2022-12-20T00:45:00;-0.40;85.50
21734;DHT22;11029;47.820;10.534;2022-12-20T00:47:27;-0.40;85.50
21734;DHT22;11029;47.820;10.534;2022-12-20T00:49:53;-0.40;85.50
21734;DHT22;11029;47.820;10.534;2022-12-20T00:52:21;-0.40;85.30
21734;DHT22;11029;47.820;10.534;2022-12-20T00:54:48;-0.40;85.40
21734;DHT22;11029;47.820;10.534;2022-12-20T00:57:14;-0.40;85.10
21734;DHT22;11029;47.820;10.534;2022-12-20T00:59:41;-0.40;85.40
21734;DHT22;11029;47.820;10.534;2022-12-20T01:02:08;-0.40;85.40
21734;DHT22;11029;47.820;10.534;2022-12-20T01:04:35;-0.40;85.30
21734;DHT22;11029;47.820;10.534;2022-12-20T01:07:02;-0.50;85.40
21734;DHT22;11029;47.820;10.534;2022-12-20T01:09:28;-0.50;85.40
21734;DHT22;11029;47.820;10.534;2022-12-20T01:11:55;-0.50;85.10
21734;DHT22;11029;47.820;10.534;2022-12-20T01:14:22;-0.50;84.70
21734;DHT22;11029;47.820;10.534;2022-12-20T01:16:49;-0.60;84.70
21734;DHT22;11029;47.820;10.534;2022-12-20T01:19:16;-0.70;84.50
21734;DHT22;11029;47.820;10.534;2022-12-20T01:21:44;-0.70;84.40
21734;DHT22;11029;47.820;10.534;2022-12-20T01:24:14;-0.80;85.30
21734;DHT22;11029;47.820;10.534;2022-12-20T01:26:42;-0.80;85.60
21734;DHT22;11029;47.820;10.534;2022-12-20T01:29:09;-0.80;86.10
21734;DHT22;11029;47.820;10.534;2022-12-20T01:31:36;-0.70;86.30
21734;DHT22;11029;47.820;10.534;2022-12-20T01:34:03;-0.70;86.20
21734;DHT22;11029;47.820;10.534;2022-12-20T01:36:32;-0.70;86.10
21734;DHT22;11029;47.820;10.534;2022-12-20T01:39:05;-0.70;85.40
21734;DHT22;11029;47.820;10.534;2022-12-20T01:41:33;-0.80;84.80
21734;DHT22;11029;47.820;10.534;2022-12-20T01:44:06;-0.80;84.90
21734;DHT22;11029;47.820;10.534;2022-12-20T01:46:52;-0.80;84.80
21734;DHT22;11029;47.820;10.534;2022-12-20T01:49:22;-0.80;85.00
21734;DHT22;11029;47.820;10.534;2022-12-20T01:52:03;-0.80;85.10
21734;DHT22;11029;47.820;10.534;2022-12-20T01:54:35;-0.80;85.10
21734;DHT22;11029;47.820;10.534;2022-12-20T01:57:12;-0.80;85.00
21734;DHT22;11029;47.820;10.534;2022-12-20T01:59:43;-0.80;84.70
21734;DHT22;11029;47.820;10.534;2022-12-20T02:02:12;-0.90;84.80
21734;DHT22;11029;47.820;10.534;2022-12-20T02:04:39;-0.90;84.40
21734;DHT22;11029;47.820;10.534;2022-12-20T02:07:07;-0.90;84.70
21734;DHT22;11029;47.820;10.534;2022-12-20T02:09:36;-0.90;84.50
21734;DHT22;11029;47.820;10.534;2022-12-20T02:12:15;-0.90;84.80
21734;DHT22;11029;47.820;10.534;2022-12-20T02:14:54;-0.90;84.90
21734;DHT22;11029;47.820;10.534;2022-12-20T02:31:17;-1.00;84.70
21734;DHT22;11029;47.820;10.534;2022-12-20T02:33:46;-1.10;84.50
21734;DHT22;11029;47.820;10.534;2022-12-20T02:36:16;-1.10;85.10
21734;DHT22;11029;47.820;10.534;2022-12-20T02:38:45;-1.00;85.20
21734;DHT22;11029;47.820;10.534;2022-12-20T02:41:25;-1.10;84.90
21734;DHT22;11029;47.820;10.534;2022-12-20T02:43:58;-1.10;84.50
21734;DHT22;11029;47.820;10.534;2022-12-20T02:46:44;-1.10;84.50
21734;DHT22;11029;47.820;10.534;2022-12-20T02:49:15;-1.10;84.50
21734;DHT22;11029;47.820;10.534;2022-12-20T02:51:45;-1.20;84.70
21734;DHT22;11029;47.820;10.534;2022-12-20T02:54:13;-1.10;84.90
21734;DHT22;11029;47.820;10.534;2022-12-20T02:59:18;-1.20;84.40
21734;DHT22;11029;47.820;10.534;2022-12-20T03:01:56;-1.20;84.30
21734;DHT22;11029;47.820;10.534;2022-12-20T03:04:30;-1.20;83.90
21734;DHT22;11029;47.820;10.534;2022-12-20T03:07:00;-1.20;84.10
21734;DHT22;11029;47.820;10.534;2022-12-20T03:09:30;-1.20;84.30
21734;DHT22;11029;47.820;10.534;2022-12-20T03:11:58;-1.20;84.40
21734;DHT22;11029;47.820;10.534;2022-12-20T03:14:24;-1.20;83.70
21734;DHT22;11029;47.820;10.534;2022-12-20T03:16:53;-1.20;83.90
21734;DHT22;11029;47.820;10.534;2022-12-20T03:19:21;-1.20;83.70
21734;DHT22;11029;47.820;10.534;2022-12-20T03:21:47;-1.20;83.40
21734;DHT22;11029;47.820;10.534;2022-12-20T03:24:14;-1.20;83.40
21734;DHT22;11029;47.820;10.534;2022-12-20T03:26:42;-1.20;83.60
21734;DHT22;11029;47.820;10.534;2022-12-20T03:29:09;-1.20;83.70
21734;DHT22;11029;47.820;10.534;2022-12-20T03:31:36;-1.20;83.90
21734;DHT22;11029;47.820;10.534;2022-12-20T03:34:04;-1.20;84.30
21734;DHT22;11029;47.820;10.534;2022-12-20T03:36:31;-1.10;84.60
21734;DHT22;11029;47.820;10.534;2022-12-20T03:39:01;-1.10;84.60
21734;DHT22;11029;47.820;10.534;2022-12-20T03:41:31;-1.10;83.80
21734;DHT22;11029;47.820;10.534;2022-12-20T03:43:58;-1.10;84.20
21734;DHT22;11029;47.820;10.534;2022-12-20T03:46:26;-1.10;84.30
21734;DHT22;11029;47.820;10.534;2022-12-20T03:48:54;-1.10;84.50
21734;DHT22;11029;47.820;10.534;2022-12-20T03:51:21;-1.00;84.60
21734;DHT22;11029;47.820;10.534;2022-12-20T03:53:48;-0.90;84.40
21734;DHT22;11029;47.820;10.534;2022-12-20T03:56:16;-0.90;84.20
21734;DHT22;11029;47.820;10.534;2022-12-20T03:58:42;-0.90;84.20
21734;DHT22;11029;47.820;10.534;2022-12-20T04:01:21;-0.90;83.80
21734;DHT22;11029;47.820;10.534;2022-12-20T04:03:49;-0.90;83.80
21734;DHT22;11029;47.820;10.534;2022-12-20T04:06:17;-0.90;83.80
21734;DHT22;11029;47.820;10.534;2022-12-20T04:08:44;-0.90;84.30
21734;DHT22;11029;47.820;10.534;2022-12-20T04:11:19;-0.90;84.00
21734;DHT22;11029;47.820;10.534;2022-12-20T04:13:52;-0.90;84.10
21734;DHT22;11029;47.820;10.534;2022-12-20T04:16:26;-0.80;84.30
21734;DHT22;11029;47.820;10.534;2022-12-20T04:18:54;-0.80;84.40
21734;DHT22;11029;47.820;10.534;2022-12-20T04:21:30;-0.80;84.70
21734;DHT22;11029;47.820;10.534;2022-12-20T04:23:59;-0.70;85.20
21734;DHT22;11029;47.820;10.534;2022-12-20T04:26:45;-0.70;85.50
21734;DHT22;11029;47.820;10.534;2022-12-20T04:29:12;-0.60;86.40
21734;DHT22;11029;47.820;10.534;2022-12-20T04:31:41;-0.50;86.20
21734;DHT22;11029;47.820;10.534;2022-12-20T04:34:08;-0.50;85.70
21734;DHT22;11029;47.820;10.534;2022-12-20T04:36:35;-0.50;85.40
21734;DHT22;11029;47.820;10.534;2022-12-20T04:39:06;-0.50;85.50
21734;DHT22;11029;47.820;10.534;2022-12-20T04:41:42;-0.60;85.30
21734;DHT22;11029;47.820;10.534;2022-12-20T04:44:12;-0.60;86.20
21734;DHT22;11029;47.820;10.534;2022-12-20T04:46:38;-0.50;86.60
21734;DHT22;11029;47.820;10.534;2022-12-20T04:49:10;-0.50;86.80
21734;DHT22;11029;47.820;10.534;2022-12-20T04:51:39;-0.50;86.50
21734;DHT22;11029;47.820;10.534;2022-12-20T04:54:06;-0.50;86.60
21734;DHT22;11029;47.820;10.534;2022-12-20T04:56:44;-0.40;86.80
21734;DHT22;11029;47.820;10.534;2022-12-20T04:59:16;-0.40;86.20
21734;DHT22;11029;47.820;10.534;2022-12-20T05:01:45;-0.40;86.50
21734;DHT22;11029;47.820;10.534;2022-12-20T05:04:18;-0.40;86.30
21734;DHT22;11029;47.820;10.534;2022-12-20T05:06:45;-0.50;85.80
21734;DHT22;11029;47.820;10.534;2022-12-20T05:09:13;-0.40;85.70
21734;DHT22;11029;47.820;10.534;2022-12-20T05:11:39;-0.40;85.80
21734;DHT22;11029;47.820;10.534;2022-12-20T05:14:07;-0.50;85.70
21734;DHT22;11029;47.820;10.534;2022-12-20T05:16:34;-0.50;86.20
21734;DHT22;11029;47.820;10.534;2022-12-20T05:19:01;-0.40;86.20
21734;DHT22;11029;47.820;10.534;2022-12-20T05:21:31;-0.40;85.90
21734;DHT22;11029;47.820;10.534;2022-12-20T05:24:16;-0.40;85.80
21734;DHT22;11029;47.820;10.534;2022-12-20T05:27:15;-0.40;86.10
21734;DHT22;11029;47.820;10.534;2022-12-20T05:29:42;-0.40;86.00
21734;DHT22;11029;47.820;10.534;2022-12-20T05:32:09;-0.40;86.00
21734;DHT22;11029;47.820;10.534;2022-12-20T05:34:39;-0.30;86.10
21734;DHT22;11029;47.820;10.534;2022-12-20T05:37:06;-0.30;85.60
21734;DHT22;11029;47.820;10.534;2022-12-20T05:39:35;-0.30;85.60
21734;DHT22;11029;47.820;10.534;2022-12-20T05:42:08;-0.40;85.40
21734;DHT22;11029;47.820;10.534;2022-12-20T05:44:35;-0.40;85.90
21734;DHT22;11029;47.820;10.534;2022-12-20T05:47:02;-0.40;86.00
21734;DHT22;11029;47.820;10.534;2022-12-20T05:49:31;-0.40;85.60
21734;DHT22;11029;47.820;10.534;2022-12-20T05:52:01;-0.40;85.90
21734;DHT22;11029;47.820;10.534;2022-12-20T05:54:28;-0.40;85.90
21734;DHT22;11029;47.820;10.534;2022-12-20T05:57:08;-0.40;85.80
21734;DHT22;11029;47.820;10.534;2022-12-20T05:59:38;-0.40;86.20
21734;DHT22;11029;47.820;10.534;2022-12-20T06:02:08;-0.30;86.20
21734;DHT22;11029;47.820;10.534;2022-12-20T06:04:37;-0.30;86.00
21734;DHT22;11029;47.820;10.534;2022-12-20T06:07:12;-0.30;86.00
21734;DHT22;11029;47.820;10.534;2022-12-20T06:09:41;-0.40;85.90
21734;DHT22;11029;47.820;10.534;2022-12-20T06:12:12;-0.40;86.00
21734;DHT22;11029;47.820;10.534;2022-12-20T06:14:39;-0.40;85.80
21734;DHT22;11029;47.820;10.534;2022-12-20T06:17:06;-0.40;86.00
21734;DHT22;11029;47.820;10.534;2022-12-20T06:19:33;-0.40;86.00
21734;DHT22;11029;47.820;10.534;2022-12-20T06:22:01;-0.50;86.30
21734;DHT22;11029;47.820;10.534;2022-12-20T06:24:40;-0.40;87.00
21734;DHT22;11029;47.820;10.534;2022-12-20T06:27:14;-0.30;87.00
21734;DHT22;11029;47.820;10.534;2022-12-20T06:29:41;-0.30;86.90
21734;DHT22;11029;47.820;10.534;2022-12-20T06:32:15;-0.20;86.90
21734;DHT22;11029;47.820;10.534;2022-12-20T06:34:42;-0.10;87.00
21734;DHT22;11029;47.820;10.534;2022-12-20T06:37:10;-0.10;86.80
21734;DHT22;11029;47.820;10.534;2022-12-20T06:39:38;-0.10;86.30
21734;DHT22;11029;47.820;10.534;2022-12-20T06:42:07;-0.10;86.20
21734;DHT22;11029;47.820;10.534;2022-12-20T06:44:34;-0.10;86.20
21734;DHT22;11029;47.820;10.534;2022-12-20T06:47:01;-0.10;86.60
21734;DHT22;11029;47.820;10.534;2022-12-20T06:49:28;-0.20;86.60
21734;DHT22;11029;47.820;10.534;2022-12-20T06:51:56;-0.10;86.90
21734;DHT22;11029;47.820;10.534;2022-12-20T06:54:41;-0.10;87.00
21734;DHT22;11029;47.820;10.534;2022-12-20T06:57:08;-0.20;86.70
21734;DHT22;11029;47.820;10.534;2022-12-20T06:59:36;-0.20;86.70
21734;DHT22;11029;47.820;10.534;2022-12-20T07:02:03;-0.10;86.90
21734;DHT22;11029;47.820;10.534;2022-12-20T07:04:33;-0.20;86.70
21734;DHT22;11029;47.820;10.534;2022-12-20T07:06:59;-0.20;86.60
21734;DHT22;11029;47.820;10.534;2022-12-20T07:09:26;-0.20;86.50
21734;DHT22;11029;47.820;10.534;2022-12-20T07:11:53;-0.20;86.50
21734;DHT22;11029;47.820;10.534;2022-12-20T07:14:19;-0.10;86.40
21734;DHT22;11029;47.820;10.534;2022-12-20T07:16:46;-0.10;86.00
21734;DHT22;11029;47.820;10.534;2022-12-20T07:19:13;-0.20;85.80
21734;DHT22;11029;47.820;10.534;2022-12-20T07:21:41;-0.20;86.30
21734;DHT22;11029;47.820;10.534;2022-12-20T07:24:09;-0.20;85.80
21734;DHT22;11029;47.820;10.534;2022-12-20T07:26:36;-0.20;85.40
21734;DHT22;11029;47.820;10.534;2022-12-20T07:29:02;-0.30;85.70
21734;DHT22;11029;47.820;10.534;2022-12-20T07:31:29;-0.20;86.40
21734;DHT22;11029;47.820;10.534;2022-12-20T07:33:56;-0.20;86.70
21734;DHT22;11029;47.820;10.534;2022-12-20T07:36:23;-0.20;86.70
21734;DHT22;11029;47.820;10.534;2022-12-20T07:38:50;-0.10;86.60
21734;DHT22;11029;47.820;10.534;2022-12-20T07:41:17;-0.10;86.10
21734;DHT22;11029;47.820;10.534;2022-12-20T07:43:47;0.00;86.10
21734;DHT22;11029;47.820;10.534;2022-12-20T07:46:14;0.00;85.70
21734;DHT22;11029;47.820;10.534;2022-12-20T07:48:41;0.00;85.60
21734;DHT22;11029;47.820;10.534;2022-12-20T07:51:14;0.00;85.80
21734;DHT22;11029;47.820;10.534;2022-12-20T07:53:51;0.10;85.60
21734;DHT22;11029;47.820;10.534;2022-12-20T07:56:20;0.10;85.80
21734;DHT22;11029;47.820;10.534;2022-12-20T07:58:49;0.10;86.30
21734;DHT22;11029;47.820;10.534;2022-12-20T08:01:19;0.20;86.80
21734;DHT22;11029;47.820;10.534;2022-12-20T08:03:50;0.30;87.40
21734;DHT22;11029;47.820;10.534;2022-12-20T08:06:18;0.40;87.30
21734;DHT22;11029;47.820;10.534;2022-12-20T08:08:49;0.40;86.60
21734;DHT22;11029;47.820;10.534;2022-12-20T08:11:17;0.40;86.30
21734;DHT22;11029;47.820;10.534;2022-12-20T08:13:45;0.50;86.20
21734;DHT22;11029;47.820;10.534;2022-12-20T08:16:17;0.60;86.00
21734;DHT22;11029;47.820;10.534;2022-12-20T08:18:43;0.70;86.00
21734;DHT22;11029;47.820;10.534;2022-12-20T08:21:10;0.70;85.50
21734;DHT22;11029;47.820;10.534;2022-12-20T08:23:38;0.70;85.30
21734;DHT22;11029;47.820;10.534;2022-12-20T08:26:05;0.80;85.20
21734;DHT22;11029;47.820;10.534;2022-12-20T08:28:32;0.80;84.50
21734;DHT22;11029;47.820;10.534;2022-12-20T08:31:05;0.80;84.60
21734;DHT22;11029;47.820;10.534;2022-12-20T08:33:33;0.90;84.90
21734;DHT22;11029;47.820;10.534;2022-12-20T08:36:02;0.90;84.80
21734;DHT22;11029;47.820;10.534;2022-12-20T08:38:30;1.10;85.10
21734;DHT22;11029;47.820;10.534;2022-12-20T08:41:05;1.10;84.60
21734;DHT22;11029;47.820;10.534;2022-12-20T08:43:33;1.10;84.30
21734;DHT22;11029;47.820;10.534;2022-12-20T08:46:00;1.10;84.20
21734;DHT22;11029;47.820;10.534;2022-12-20T08:48:28;1.10;84.60
21734;DHT22;11029;47.820;10.534;2022-12-20T08:50:56;1.10;85.00
21734;DHT22;11029;47.820;10.534;2022-12-20T08:53:23;1.20;84.30
21734;DHT22;11029;47.820;10.534;2022-12-20T08:55:51;1.20;84.00
21734;DHT22;11029;47.820;10.534;2022-12-20T08:58:19;1.30;84.40
21734;DHT22;11029;47.820;10.534;2022-12-20T09:00:46;1.30;84.40
21734;DHT22;11029;47.820;10.534;2022-12-20T09:03:13;1.30;84.00
21734;DHT22;11029;47.820;10.534;2022-12-20T09:05:45;1.20;83.50
21734;DHT22;11029;47.820;10.534;2022-12-20T09:08:14;1.10;84.20
21734;DHT22;11029;47.820;10.534;2022-12-20T09:10:41;1.20;84.50
21734;DHT22;11029;47.820;10.534;2022-12-20T09:13:09;1.30;84.70
21734;DHT22;11029;47.820;10.534;2022-12-20T09:15:36;1.40;84.70
21734;DHT22;11029;47.820;10.534;2022-12-20T09:18:04;1.60;84.80
21734;DHT22;11029;47.820;10.534;2022-12-20T09:20:31;1.70;84.20
21734;DHT22;11029;47.820;10.534;2022-12-20T09:22:59;1.70;84.00
21734;DHT22;11029;47.820;10.534;2022-12-20T09:25:26;1.80;83.70
21734;DHT22;11029;47.820;10.534;2022-12-20T09:27:53;1.90;83.10
21734;DHT22;11029;47.820;10.534;2022-12-20T09:30:22;2.00;83.50
21734;DHT22;11029;47.820;10.534;2022-12-20T09:32:49;2.10;83.00
21734;DHT22;11029;47.820;10.534;2022-12-20T09:35:16;2.10;82.70
21734;DHT22;11029;47.820;10.534;2022-12-20T09:37:48;2.10;82.40
21734;DHT22;11029;47.820;10.534;2022-12-20T09:40:18;2.00;82.80
21734;DHT22;11029;47.820;10.534;2022-12-20T09:42:47;2.10;83.00
21734;DHT22;11029;47.820;10.534;2022-12-20T09:45:27;2.20;83.00
21734;DHT22;11029;47.820;10.534;2022-12-20T09:47:54;2.20;82.60
21734;DHT22;11029;47.820;10.534;2022-12-20T09:50:38;2.40;82.90
21734;DHT22;11029;47.820;10.534;2022-12-20T09:53:27;2.50;82.20
21734;DHT22;11029;47.820;10.534;2022-12-20T09:56:02;2.60;82.00
21734;DHT22;11029;47.820;10.534;2022-12-20T09:59:04;2.70;81.40
21734;DHT22;11029;47.820;10.534;2022-12-20T10:01:33;2.80;81.50
21734;DHT22;11029;47.820;10.534;2022-12-20T10:21:39;3.30;80.40
21734;DHT22;11029;47.820;10.534;2022-12-20T10:24:18;3.10;79.80
21734;DHT22;11029;47.820;10.534;2022-12-20T10:26:48;2.80;81.00
21734;DHT22;11029;47.820;10.534;2022-12-20T10:29:17;2.80;81.70
21734;DHT22;11029;47.820;10.534;2022-12-20T10:31:44;2.90;81.80
21734;DHT22;11029;47.820;10.534;2022-12-20T10:34:11;2.90;82.30
21734;DHT22;11029;47.820;10.534;2022-12-20T10:36:37;3.10;82.30
21734;DHT22;11029;47.820;10.534;2022-12-20T10:39:08;3.20;81.80
21734;DHT22;11029;47.820;10.534;2022-12-20T10:46:55;3.50;80.90
21734;DHT22;11029;47.820;10.534;2022-12-20T10:54:37;3.70;80.20
21734;DHT22;11029;47.820;10.534;2022-12-20T10:57:22;3.70;80.40
21734;DHT22;11029;47.820;10.534;2022-12-20T10:59:53;3.80;80.30
21734;DHT22;11029;47.820;10.534;2022-12-20T11:02:36;3.90;80.00
21734;DHT22;11029;47.820;10.534;2022-12-20T11:07:57;3.80;79.20
21734;DHT22;11029;47.820;10.534;2022-12-20T11:10:44;3.80;79.80
21734;DHT22;11029;47.820;10.534;2022-12-20T11:13:24;3.80;79.20
21734;DHT22;11029;47.820;10.534;2022-12-20T11:15:54;3.80;79.70
21734;DHT22;11029;47.820;10.534;2022-12-20T11:18:41;3.80;79.80
21734;DHT22;11029;47.820;10.534;2022-12-20T11:21:31;3.90;79.80
21734;DHT22;11029;47.820;10.534;2022-12-20T11:25:02;3.90;79.70
21734;DHT22;11029;47.820;10.534;2022-12-20T11:27:09;3.80;79.30
21734;DHT22;11029;47.820;10.534;2022-12-20T11:30:02;3.70;80.00
21734;DHT22;11029;47.820;10.534;2022-12-20T11:32:46;3.70;80.60
21734;DHT22;11029;47.820;10.534;2022-12-20T11:38:32;3.60;81.10
21734;DHT22;11029;47.820;10.534;2022-12-20T11:41:54;3.70;81.10
21734;DHT22;11029;47.820;10.534;2022-12-20T11:45:03;3.70;81.00
21734;DHT22;11029;47.820;10.534;2022-12-20T11:56:40;3.90;80.30
21734;DHT22;11029;47.820;10.534;2022-12-20T11:59:30;3.90;80.30
21734;DHT22;11029;47.820;10.534;2022-12-20T12:02:09;3.90;80.30
21734;DHT22;11029;47.820;10.534;2022-12-20T12:04:43;3.90;79.80
21734;DHT22;11029;47.820;10.534;2022-12-20T12:07:18;3.80;80.20
21734;DHT22;11029;47.820;10.534;2022-12-20T12:09:55;3.80;80.40
21734;DHT22;11029;47.820;10.534;2022-12-20T12:12:38;3.80;80.50
21734;DHT22;11029;47.820;10.534;2022-12-20T12:17:59;3.50;81.20
21734;DHT22;11029;47.820;10.534;2022-12-20T12:23:47;3.40;81.60
21734;DHT22;11029;47.820;10.534;2022-12-20T12:26:23;3.40;82.00
21734;DHT22;11029;47.820;10.534;2022-12-20T12:28:54;3.40;82.10
21734;DHT22;11029;47.820;10.534;2022-12-20T12:31:44;3.40;82.20
21734;DHT22;11029;47.820;10.534;2022-12-20T12:34:35;3.50;81.70
21734;DHT22;11029;47.820;10.534;2022-12-20T12:46:02;3.10;82.90
21734;DHT22;11029;47.820;10.534;2022-12-20T12:48:41;3.10;83.20
21734;DHT22;11029;47.820;10.534;2022-12-20T12:51:09;3.10;83.40
21734;DHT22;11029;47.820;10.534;2022-12-20T12:56:40;3.40;83.30
21734;DHT22;11029;47.820;10.534;2022-12-20T13:09:36;4.40;79.20
21734;DHT22;11029;47.820;10.534;2022-12-20T13:12:46;4.50;79.20
21734;DHT22;11029;47.820;10.534;2022-12-20T13:17:52;4.70;78.50
21734;DHT22;11029;47.820;10.534;2022-12-20T13:20:34;4.70;78.60
21734;DHT22;11029;47.820;10.534;2022-12-20T13:25:31;4.50;78.30
21734;DHT22;11029;47.820;10.534;2022-12-20T13:36:01;4.20;80.00
21734;DHT22;11029;47.820;10.534;2022-12-20T13:41:22;4.00;80.30
21734;DHT22;11029;47.820;10.534;2022-12-20T13:49:41;3.80;81.30
21734;DHT22;11029;47.820;10.534;2022-12-20T13:52:23;3.80;81.40
21734;DHT22;11029;47.820;10.534;2022-12-20T13:54:53;3.80;81.50
21734;DHT22;11029;47.820;10.534;2022-12-20T13:57:27;3.60;81.70
21734;DHT22;11029;47.820;10.534;2022-12-20T13:59:57;3.60;82.10
21734;DHT22;11029;47.820;10.534;2022-12-20T14:02:40;3.60;82.40
21734;DHT22;11029;47.820;10.534;2022-12-20T14:05:30;3.60;82.20
21734;DHT22;11029;47.820;10.534;2022-12-20T14:08:03;3.50;82.60
21734;DHT22;11029;47.820;10.534;2022-12-20T14:10:32;3.50;82.80
21734;DHT22;11029;47.820;10.534;2022-12-20T14:12:59;3.50;82.90
21734;DHT22;11029;47.820;10.534;2022-12-20T14:17:52;3.40;82.90
21734;DHT22;11029;47.820;10.534;2022-12-20T14:23:00;3.30;82.90
21734;DHT22;11029;47.820;10.534;2022-12-20T14:25:43;3.30;83.10
21734;DHT22;11029;47.820;10.534;2022-12-20T14:28:26;3.20;82.90
21734;DHT22;11029;47.820;10.534;2022-12-20T14:30:57;3.10;83.10
21734;DHT22;11029;47.820;10.534;2022-12-20T14:33:33;3.20;83.30
21734;DHT22;11029;47.820;10.534;2022-12-20T14:38:50;3.10;83.50
21734;DHT22;11029;47.820;10.534;2022-12-20T14:41:37;3.10;83.50
21734;DHT22;11029;47.820;10.534;2022-12-20T14:44:20;3.10;83.50
21734;DHT22;11029;47.820;10.534;2022-12-20T14:46:51;3.10;83.50
21734;DHT22;11029;47.820;10.534;2022-12-20T14:49:27;3.10;83.40
21734;DHT22;11029;47.820;10.534;2022-12-20T14:54:47;3.50;83.50
21734;DHT22;11029;47.820;10.534;2022-12-20T15:02:45;3.70;80.60
21734;DHT22;11029;47.820;10.534;2022-12-20T15:08:29;3.30;81.80
21734;DHT22;11029;47.820;10.534;2022-12-20T15:13:39;3.00;83.00
21734;DHT22;11029;47.820;10.534;2022-12-20T15:16:15;2.90;83.60
21734;DHT22;11029;47.820;10.534;2022-12-20T15:18:43;2.90;83.70
21734;DHT22;11029;47.820;10.534;2022-12-20T15:21:35;2.90;83.70
21734;DHT22;11029;47.820;10.534;2022-12-20T15:24:08;2.80;84.10
21734;DHT22;11029;47.820;10.534;2022-12-20T15:26:35;2.80;84.70
21734;DHT22;11029;47.820;10.534;2022-12-20T15:29:02;2.80;84.60
21734;DHT22;11029;47.820;10.534;2022-12-20T15:31:32;2.70;84.50
21734;DHT22;11029;47.820;10.534;2022-12-20T15:34:03;2.70;84.90
21734;DHT22;11029;47.820;10.534;2022-12-20T15:36:30;2.70;84.70
21734;DHT22;11029;47.820;10.534;2022-12-20T15:38:59;2.60;85.00
21734;DHT22;11029;47.820;10.534;2022-12-20T15:41:47;2.70;85.30
21734;DHT22;11029;47.820;10.534;2022-12-20T15:44:16;2.60;85.30
21734;DHT22;11029;47.820;10.534;2022-12-20T15:46:44;2.50;84.90
21734;DHT22;11029;47.820;10.534;2022-12-20T15:49:22;2.50;85.30
21734;DHT22;11029;47.820;10.534;2022-12-20T15:51:50;2.30;85.80
21734;DHT22;11029;47.820;10.534;2022-12-20T15:54:22;2.30;86.90
21734;DHT22;11029;47.820;10.534;2022-12-20T15:56:57;2.30;87.00
21734;DHT22;11029;47.820;10.534;2022-12-20T15:59:24;2.30;86.90
21734;DHT22;11029;47.820;10.534;2022-12-20T16:02:25;2.40;86.60
21734;DHT22;11029;47.820;10.534;2022-12-20T16:04:53;2.40;86.20
21734;DHT22;11029;47.820;10.534;2022-12-20T16:07:21;2.40;86.20
21734;DHT22;11029;47.820;10.534;2022-12-20T16:09:48;2.40;86.10
21734;DHT22;11029;47.820;10.534;2022-12-20T16:12:17;2.40;85.80
21734;DHT22;11029;47.820;10.534;2022-12-20T16:14:44;2.40;86.00
21734;DHT22;11029;47.820;10.534;2022-12-20T16:17:12;2.40;85.90
21734;DHT22;11029;47.820;10.534;2022-12-20T16:19:40;2.40;85.80
21734;DHT22;11029;47.820;10.534;2022-12-20T16:22:14;2.40;86.10
21734;DHT22;11029;47.820;10.534;2022-12-20T16:24:42;2.40;85.80
21734;DHT22;11029;47.820;10.534;2022-12-20T16:27:09;2.40;85.70
21734;DHT22;11029;47.820;10.534;2022-12-20T16:29:35;2.40;85.90
21734;DHT22;11029;47.820;10.534;2022-12-20T16:32:02;2.40;86.10
21734;DHT22;11029;47.820;10.534;2022-12-20T16:34:33;2.40;86.10
21734;DHT22;11029;47.820;10.534;2022-12-20T16:37:00;2.40;85.90
21734;DHT22;11029;47.820;10.534;2022-12-20T16:39:27;2.30;86.10
21734;DHT22;11029;47.820;10.534;2022-12-20T16:41:53;2.40;86.30
21734;DHT22;11029;47.820;10.534;2022-12-20T16:44:20;2.40;85.90
21734;DHT22;11029;47.820;10.534;2022-12-20T16:46:48;2.30;85.90
21734;DHT22;11029;47.820;10.534;2022-12-20T16:49:15;2.30;86.30
21734;DHT22;11029;47.820;10.534;2022-12-20T16:51:47;2.30;86.30
21734;DHT22;11029;47.820;10.534;2022-12-20T16:54:16;2.30;86.30
21734;DHT22;11029;47.820;10.534;2022-12-20T16:56:48;2.30;86.30
21734;DHT22;11029;47.820;10.534;2022-12-20T16:59:17;2.30;86.20
21734;DHT22;11029;47.820;10.534;2022-12-20T17:01:48;2.20;86.30
21734;DHT22;11029;47.820;10.534;2022-12-20T17:04:18;2.20;87.10
21734;DHT22;11029;47.820;10.534;2022-12-20T17:06:44;2.20;87.10
21734;DHT22;11029;47.820;10.534;2022-12-20T17:09:12;2.20;87.40
21734;DHT22;11029;47.820;10.534;2022-12-20T17:11:39;2.20;87.00
21734;DHT22;11029;47.820;10.534;2022-12-20T17:14:05;2.20;86.90
21734;DHT22;11029;47.820;10.534;2022-12-20T17:16:38;2.10;86.90
21734;DHT22;11029;47.820;10.534;2022-12-20T17:19:05;2.10;86.70
21734;DHT22;11029;47.820;10.534;2022-12-20T17:21:42;2.10;86.60
21734;DHT22;11029;47.820;10.534;2022-12-20T17:24:27;2.10;86.50
21734;DHT22;11029;47.820;10.534;2022-12-20T17:26:54;2.00;86.70
21734;DHT22;11029;47.820;10.534;2022-12-20T17:29:21;2.00;86.80
21734;DHT22;11029;47.820;10.534;2022-12-20T17:31:48;2.00;86.60
21734;DHT22;11029;47.820;10.534;2022-12-20T17:36:48;2.10;86.70
21734;DHT22;11029;47.820;10.534;2022-12-20T17:39:15;2.00;86.30
21734;DHT22;11029;47.820;10.534;2022-12-20T17:41:42;2.00;86.30
21734;DHT22;11029;47.820;10.534;2022-12-20T17:44:17;2.00;86.60
21734;DHT22;11029;47.820;10.534;2022-12-20T17:46:44;1.90;86.80
21734;DHT22;11029;47.820;10.534;2022-12-20T17:49:11;1.90;86.90
21734;DHT22;11029;47.820;10.534;2022-12-20T17:51:38;1.90;86.90
21734;DHT22;11029;47.820;10.534;2022-12-20T17:54:05;1.90;86.30
21734;DHT22;11029;47.820;10.534;2022-12-20T17:56:34;1.80;86.40
21734;DHT22;11029;47.820;10.534;2022-12-20T17:59:02;1.80;86.40
21734;DHT22;11029;47.820;10.534;2022-12-20T18:01:34;1.80;86.50
21734;DHT22;11029;47.820;10.534;2022-12-20T18:04:04;1.80;86.50